Time;durP1;ratioP1;P1;durP2;ratioP2;P2;SDS_P1;SDS_P2;PMS_P1;PMS_P2;Temp;Humidity;BMP_temperature;BMP_pressure;BME280_temperature;BME280_humidity;BME280_pressure;Samples;Min_cycle;Max_cycle;Signal;HPM_P1;HPM_P2
2021/10/09 00:02:11;;;;;;;22.23;18.77;;;11.20;99.90;;;;;;5026478;28;20665;-72
2021/10/09 00:04:36;;;;;;;21.67;18.90;;;11.10;99.90;;;;;;5029759;28;20183;-72
2021/10/09 00:07:02;;;;;;;24.07;18.10;;;11.00;99.90;;;;;;5032644;27;20186;-72
2021/10/09 00:09:28;;;;;;;24.77;18.27;;;10.90;99.90;;;;;;5033472;28;20175;-72
2021/10/09 00:11:54;;;;;;;22.27;18.90;;;10.80;99.90;;;;;;5033218;28;20290;-72
2021/10/09 00:14:20;;;;;;;23.03;20.30;;;10.70;99.90;;;;;;5032663;28;20893;-72
2021/10/09 00:16:46;;;;;;;22.87;18.60;;;10.70;99.90;;;;;;5032561;28;20478;-72
2021/10/09 00:19:13;;;;;;;25.73;18.97;;;10.60;99.90;;;;;;5032620;28;20414;-72
2021/10/09 00:21:43;;;;;;;24.00;19.90;;;10.70;99.90;;;;;;5013117;28;20406;-72
2021/10/09 00:24:11;;;;;;;23.63;19.13;;;10.60;99.90;;;;;;5012450;27;20429;-72
2021/10/09 00:26:36;;;;;;;28.27;20.07;;;10.60;99.90;;;;;;5012852;28;20435;-73
2021/10/09 00:29:02;;;;;;;22.23;18.23;;;10.60;99.90;;;;;;5011299;28;20429;-72
2021/10/09 00:31:28;;;;;;;25.63;16.60;;;10.60;99.90;;;;;;5011404;28;20210;-72
2021/10/09 00:33:53;;;;;;;29.47;20.27;;;10.60;99.90;;;;;;5012569;28;20776;-72
2021/10/09 00:36:19;;;;;;;23.50;18.70;;;10.40;99.90;;;;;;5013916;28;20214;-72
2021/10/09 00:38:44;;;;;;;23.37;19.20;;;10.40;99.90;;;;;;5012622;28;20167;-72
2021/10/09 00:41:10;;;;;;;20.83;17.97;;;10.40;99.90;;;;;;5012575;28;20172;-72
2021/10/09 00:43:35;;;;;;;21.83;18.40;;;10.40;99.90;;;;;;5025217;28;20699;-73
2021/10/09 00:46:03;;;;;;;23.57;18.50;;;10.40;99.90;;;;;;5052384;28;20305;-72
2021/10/09 00:48:28;;;;;;;23.73;17.73;;;10.40;99.90;;;;;;5051902;28;20257;-72
2021/10/09 00:50:54;;;;;;;26.23;18.60;;;10.40;99.90;;;;;;5052321;28;20536;-72
2021/10/09 00:53:21;;;;;;;25.17;18.47;;;10.40;99.90;;;;;;5035210;27;20233;-72
2021/10/09 00:55:48;;;;;;;26.90;19.50;;;10.40;99.90;;;;;;5032061;28;20260;-72
2021/10/09 00:58:15;;;;;;;24.67;18.50;;;10.30;99.90;;;;;;5032367;28;20413;-72
2021/10/09 01:00:43;;;;;;;24.37;18.40;;;10.20;99.90;;;;;;5031577;28;20500;-72
2021/10/09 01:03:09;;;;;;;24.00;18.07;;;10.20;99.90;;;;;;5031747;28;20413;-72
2021/10/09 01:05:36;;;;;;;24.97;19.60;;;10.10;99.90;;;;;;5031582;27;20973;-72
2021/10/09 01:08:03;;;;;;;25.55;21.75;;;10.10;99.90;;;;;;5011772;28;20430;-72
2021/10/09 01:10:28;;;;;;;22.70;19.03;;;10.10;99.90;;;;;;5012208;28;20171;-72
2021/10/09 01:12:54;;;;;;;22.43;18.73;;;10.10;99.90;;;;;;5012599;28;20509;-72
2021/10/09 01:15:24;;;;;;;25.73;18.70;;;10.20;99.90;;;;;;5012018;28;20188;-72
2021/10/09 01:17:50;;;;;;;22.13;18.17;;;10.20;99.90;;;;;;5012280;28;20156;-72
2021/10/09 01:20:16;;;;;;;22.37;17.83;;;10.30;99.90;;;;;;5012072;27;20431;-72
2021/10/09 01:22:45;;;;;;;20.00;16.13;;;10.30;99.90;;;;;;5013572;28;20419;-72
2021/10/09 01:25:10;;;;;;;22.27;17.67;;;10.40;99.90;;;;;;5019419;28;20449;-73
2021/10/09 01:27:39;;;;;;;21.60;17.57;;;10.40;99.90;;;;;;5025301;28;20422;-72
2021/10/09 01:30:07;;;;;;;20.00;16.73;;;10.40;99.90;;;;;;5033062;28;20577;-72
2021/10/09 01:32:32;;;;;;;21.37;16.50;;;10.40;99.90;;;;;;5031344;28;20953;-72
2021/10/09 01:34:58;;;;;;;23.07;16.60;;;10.40;99.90;;;;;;5031218;28;20417;-72
2021/10/09 01:37:23;;;;;;;23.60;17.30;;;10.40;99.90;;;;;;5026598;28;20180;-72
2021/10/09 01:39:49;;;;;;;23.23;17.60;;;10.40;99.90;;;;;;5011793;27;20515;-72
2021/10/09 01:42:14;;;;;;;19.00;16.90;;;10.40;99.90;;;;;;5011821;28;20175;-72
2021/10/09 01:44:40;;;;;;;20.20;17.57;;;10.40;99.90;;;;;;5011850;28;20184;-72
2021/10/09 01:47:06;;;;;;;23.40;17.70;;;10.40;99.90;;;;;;5011650;28;20178;-72
2021/10/09 01:49:32;;;;;;;21.07;16.40;;;10.30;99.90;;;;;;5011648;28;20438;-72
2021/10/09 01:51:58;;;;;;;19.97;16.77;;;10.30;99.90;;;;;;5012212;27;20314;-72
2021/10/09 01:54:24;;;;;;;18.70;16.73;;;10.20;99.90;;;;;;5017001;28;20458;-72
2021/10/09 01:56:49;;;;;;;21.90;17.67;;;10.20;99.90;;;;;;5031694;28;20379;-72
2021/10/09 01:59:15;;;;;;;20.83;17.37;;;10.20;99.90;;;;;;5031653;28;20174;-73
2021/10/09 02:01:41;;;;;;;21.37;16.70;;;10.20;99.90;;;;;;5031051;28;20174;-73
2021/10/09 02:04:07;;;;;;;22.80;18.37;;;10.20;99.90;;;;;;5031446;28;20436;-72
2021/10/09 02:06:33;;;;;;;19.87;16.90;;;10.10;99.90;;;;;;5031862;28;20771;-72
2021/10/09 02:08:59;;;;;;;22.27;17.40;;;10.00;99.90;;;;;;5031145;27;20444;-72
2021/10/09 02:11:34;;;;;;;21.60;18.00;;;9.90;99.90;;;;;;5029289;28;20475;-72
2021/10/09 02:14:20;;;;;;;22.40;17.40;;;9.80;99.90;;;;;;5031217;28;20175;-72
2021/10/09 02:24:50;;;;;;;25.30;18.30;;;9.80;99.90;;;;;;5031721;28;20404;-72
2021/10/09 02:27:16;;;;;;;23.30;17.60;;;9.90;99.90;;;;;;5028286;28;20986;-72
2021/10/09 02:29:41;;;;;;;26.13;19.40;;;9.90;99.90;;;;;;5012039;28;20409;-72
2021/10/09 02:32:07;;;;;;;22.50;19.20;;;9.90;99.90;;;;;;5017887;27;20230;-72
2021/10/09 02:34:32;;;;;;;23.53;18.30;;;9.90;99.90;;;;;;5011744;28;20162;-72
2021/10/09 02:36:58;;;;;;;24.43;18.23;;;9.90;99.90;;;;;;5011984;28;20244;-72
2021/10/09 02:39:23;;;;;;;23.17;18.00;;;9.80;99.90;;;;;;5011648;28;20197;-72
2021/10/09 02:41:49;;;;;;;25.73;19.00;;;9.90;99.90;;;;;;5012990;28;20172;-72
2021/10/09 02:44:14;;;;;;;23.77;17.87;;;9.90;99.90;;;;;;5031149;28;20174;-72
2021/10/09 02:46:40;;;;;;;23.20;19.27;;;9.80;99.90;;;;;;5030641;28;20186;-72
2021/10/09 02:49:05;;;;;;;22.47;18.40;;;9.80;99.90;;;;;;5030861;28;20583;-72
2021/10/09 02:51:31;;;;;;;27.80;21.07;;;9.90;99.90;;;;;;5032667;28;20187;-72
2021/10/09 02:53:56;;;;;;;26.97;20.43;;;9.90;99.90;;;;;;5033136;28;20174;-72
2021/10/09 02:56:22;;;;;;;27.67;19.50;;;9.80;99.90;;;;;;5035406;28;20686;-72
2021/10/09 02:58:47;;;;;;;27.10;20.83;;;9.90;99.90;;;;;;5011127;28;20168;-72
2021/10/09 03:01:13;;;;;;;24.83;20.23;;;9.90;99.90;;;;;;5011255;28;20176;-72
2021/10/09 03:03:38;;;;;;;24.60;19.83;;;9.90;99.90;;;;;;5010747;28;20179;-72
2021/10/09 03:06:04;;;;;;;26.77;20.93;;;9.90;99.90;;;;;;5010501;28;20580;-72
2021/10/09 03:08:29;;;;;;;28.90;20.20;;;9.90;99.90;;;;;;5009676;27;20194;-72
2021/10/09 03:10:55;;;;;;;24.47;20.30;;;10.00;99.90;;;;;;5010458;28;20206;-72
2021/10/09 03:13:20;;;;;;;27.57;20.10;;;9.90;99.90;;;;;;5011515;28;20672;-72
2021/10/09 03:15:46;;;;;;;25.87;20.40;;;9.90;99.90;;;;;;5010923;28;20187;-72
2021/10/09 03:18:11;;;;;;;27.47;21.20;;;9.90;99.90;;;;;;5011248;28;20224;-72
2021/10/09 03:20:37;;;;;;;30.10;21.80;;;9.90;99.90;;;;;;5010834;27;20199;-72
2021/10/09 03:23:03;;;;;;;29.53;21.03;;;9.80;99.90;;;;;;5011781;28;20172;-72
2021/10/09 03:25:28;;;;;;;25.20;18.87;;;9.90;99.90;;;;;;5015160;28;20676;-72
2021/10/09 03:27:54;;;;;;;27.70;21.50;;;9.90;99.90;;;;;;5014277;28;20175;-72
2021/10/09 03:30:19;;;;;;;29.63;21.77;;;9.80;99.90;;;;;;5014025;28;20228;-72
2021/10/09 03:32:45;;;;;;;26.43;19.73;;;9.80;99.90;;;;;;5024766;27;20207;-72
2021/10/09 03:35:11;;;;;;;23.93;20.03;;;9.80;99.90;;;;;;5013750;28;20210;-72
2021/10/09 03:37:36;;;;;;;26.87;20.10;;;9.80;99.90;;;;;;5013914;28;20194;-72
2021/10/09 03:40:06;;;;;;;30.17;21.00;;;9.80;99.90;;;;;;5013901;28;20566;-72
2021/10/09 03:42:35;;;;;;;24.23;19.70;;;9.80;99.90;;;;;;5013851;28;20938;-72
2021/10/09 03:45:12;;;;;;;24.73;20.00;;;9.80;99.90;;;;;;5014509;28;20987;-72
2021/10/09 03:52:23;;;;;;;25.47;20.13;;;9.70;99.90;;;;;;5013270;28;20437;-72
2021/10/09 03:53:08;;;;;;;25.73;19.80;;;9.60;99.90;;;;;;5013035;28;20195;-72
2021/10/09 03:55:34;;;;;;;29.13;22.93;;;9.60;99.90;;;;;;5013480;28;20421;-72
2021/10/09 03:57:59;;;;;;;25.30;19.83;;;9.60;99.90;;;;;;5013759;28;20179;-72
2021/10/09 04:00:25;;;;;;;28.80;21.20;;;9.60;99.90;;;;;;5013257;28;20559;-72
2021/10/09 04:02:50;;;;;;;27.40;20.37;;;9.60;99.90;;;;;;5013515;28;20178;-72
2021/10/09 04:05:16;;;;;;;25.50;20.00;;;9.60;99.90;;;;;;5013383;28;20207;-72
2021/10/09 04:07:42;;;;;;;25.03;19.40;;;9.60;99.90;;;;;;5028703;28;20232;-72
2021/10/09 04:10:09;;;;;;;26.10;20.30;;;9.60;99.90;;;;;;5033631;28;20264;-72
2021/10/09 04:12:35;;;;;;;28.10;21.73;;;9.60;99.90;;;;;;5032909;27;20251;-72
2021/10/09 04:15:01;;;;;;;30.10;20.97;;;9.60;99.90;;;;;;5032678;28;20454;-72
2021/10/09 04:17:27;;;;;;;26.43;20.07;;;9.60;99.90;;;;;;5031865;28;20245;-72
2021/10/09 04:19:52;;;;;;;25.80;19.70;;;9.60;99.90;;;;;;5033640;28;20871;-72
2021/10/09 04:22:18;;;;;;;30.03;20.17;;;9.60;99.90;;;;;;5033344;27;20234;-72
2021/10/09 04:24:44;;;;;;;28.37;19.43;;;9.60;99.90;;;;;;5032640;28;20193;-72
2021/10/09 04:27:09;;;;;;;31.00;21.27;;;9.60;99.90;;;;;;5032039;28;20174;-72
2021/10/09 04:29:35;;;;;;;25.93;19.60;;;9.60;99.90;;;;;;5035889;28;20182;-72
2021/10/09 04:32:00;;;;;;;23.90;19.20;;;9.60;99.90;;;;;;5037424;28;20210;-72
2021/10/09 04:34:27;;;;;;;24.57;19.80;;;9.60;99.90;;;;;;5036171;28;20611;-72
2021/10/09 04:36:55;;;;;;;28.33;20.53;;;9.60;99.90;;;;;;5033093;28;20250;-72
2021/10/09 04:39:24;;;;;;;25.83;20.17;;;9.60;99.90;;;;;;5030821;28;20470;-72
2021/10/09 04:41:50;;;;;;;28.40;21.10;;;9.50;99.90;;;;;;5031003;27;20429;-72
2021/10/09 04:44:15;;;;;;;25.20;19.07;;;9.50;99.90;;;;;;5020831;28;20410;-72
2021/10/09 04:46:41;;;;;;;26.83;20.30;;;9.50;99.90;;;;;;5026019;28;20190;-72
2021/10/09 04:49:08;;;;;;;26.30;20.80;;;9.50;99.90;;;;;;5026845;28;20219;-73
2021/10/09 04:51:34;;;;;;;25.43;19.47;;;9.50;99.90;;;;;;5030698;28;20202;-72
2021/10/09 04:54:00;;;;;;;25.70;19.00;;;9.50;99.90;;;;;;5034289;28;20420;-72
2021/10/09 04:56:25;;;;;;;24.43;20.30;;;9.40;99.90;;;;;;5036085;28;20428;-72
2021/10/09 04:58:51;;;;;;;26.97;19.70;;;9.40;99.90;;;;;;5032754;27;20634;-72
2021/10/09 05:01:17;;;;;;;24.80;19.60;;;9.40;99.90;;;;;;5032675;28;20718;-72
2021/10/09 05:03:42;;;;;;;24.90;19.93;;;9.40;99.90;;;;;;5030624;28;20175;-72
2021/10/09 05:06:08;;;;;;;23.80;19.10;;;9.40;99.90;;;;;;5032468;28;20752;-72
2021/10/09 05:08:33;;;;;;;22.20;19.23;;;9.40;99.90;;;;;;5030721;28;20190;-72
2021/10/09 05:11:01;;;;;;;24.73;18.97;;;9.40;99.90;;;;;;5031960;27;20274;-71
2021/10/09 05:13:27;;;;;;;26.33;18.50;;;9.40;99.90;;;;;;5031723;28;20149;-72
2021/10/09 05:15:52;;;;;;;23.40;18.10;;;9.30;99.90;;;;;;5031314;28;20452;-72
2021/10/09 05:18:18;;;;;;;25.23;19.13;;;9.30;99.90;;;;;;5032066;28;20192;-72
2021/10/09 05:20:43;;;;;;;24.83;19.03;;;9.30;99.90;;;;;;5031863;28;20171;-72
2021/10/09 05:23:09;;;;;;;23.30;18.20;;;9.30;99.90;;;;;;5032009;28;20223;-72
2021/10/09 05:25:36;;;;;;;25.43;18.03;;;9.30;99.90;;;;;;5028767;28;20215;-72
2021/10/09 05:30:31;;;;;;;22.07;17.37;;;9.40;99.90;;;;;;5032095;28;20175;-72
2021/10/09 05:33:12;;;;;;;21.23;17.13;;;9.40;99.90;;;;;;5024061;27;20434;-72
2021/10/09 05:35:39;;;;;;;24.10;18.93;;;9.40;99.90;;;;;;5014960;28;20488;-72
2021/10/09 05:38:04;;;;;;;27.10;19.60;;;9.30;99.90;;;;;;5012074;28;20468;-72
2021/10/09 05:40:30;;;;;;;24.90;19.33;;;9.30;99.90;;;;;;5012008;28;20403;-72
2021/10/09 05:42:55;;;;;;;22.27;17.73;;;9.30;99.90;;;;;;5011784;28;20171;-72
2021/10/09 05:45:21;;;;;;;23.63;17.97;;;9.30;99.90;;;;;;5018494;28;20217;-72
2021/10/09 05:47:49;;;;;;;25.40;18.80;;;9.30;99.90;;;;;;5014473;28;20584;-72
2021/10/09 05:50:16;;;;;;;23.53;18.00;;;9.30;99.90;;;;;;5011697;28;20716;-72
2021/10/09 05:52:48;;;;;;;23.87;18.00;;;9.30;99.90;;;;;;5012299;28;20497;-72
2021/10/09 05:55:21;;;;;;;22.57;18.20;;;9.30;99.90;;;;;;5012854;28;20474;-72
2021/10/09 05:58:02;;;;;;;25.10;19.30;;;9.30;99.90;;;;;;5011689;28;20505;-72
2021/10/09 06:00:50;;;;;;;22.20;17.33;;;9.30;99.90;;;;;;5012113;28;20406;-72
2021/10/09 06:25:36;;;;;;;23.13;18.43;;;9.10;99.90;;;;;;5027043;28;20497;-72
2021/10/09 06:50:23;;;;;;;22.17;17.50;;;9.20;99.90;;;;;;5021771;28;20440;-72
2021/10/09 07:01:00;;;;;;;26.80;18.50;;;9.30;99.90;;;;;;5031216;28;20404;-73
2021/10/09 07:03:26;;;;;;;24.83;20.80;;;9.30;99.90;;;;;;5029356;28;20418;-72
2021/10/09 07:05:52;;;;;;;22.30;18.97;;;9.40;99.90;;;;;;5030374;28;20201;-72
2021/10/09 07:08:17;;;;;;;24.43;19.10;;;9.40;99.90;;;;;;5030769;28;20182;-72
2021/10/09 07:10:48;;;;;;;25.70;18.80;;;9.40;99.90;;;;;;5030126;28;22586;-72
2021/10/09 07:13:15;;;;;;;24.65;21.73;;;9.40;99.90;;;;;;5029231;27;20405;-72
2021/10/09 07:15:40;;;;;;;24.73;19.83;;;9.50;99.90;;;;;;5019162;28;20195;-72
2021/10/09 07:18:11;;;;;;;25.10;20.20;;;9.50;99.90;;;;;;5036382;28;20814;-72
2021/10/09 07:20:38;;;;;;;25.63;18.50;;;9.60;99.90;;;;;;5041893;27;20214;-71
2021/10/09 07:23:05;;;;;;;27.00;19.13;;;9.60;99.90;;;;;;5097776;27;20448;-72
2021/10/09 07:25:31;;;;;;;23.30;19.13;;;9.70;99.90;;;;;;5043199;27;20461;-72
2021/10/09 07:27:57;;;;;;;25.27;19.70;;;9.70;99.90;;;;;;5095624;28;20478;-74
2021/10/09 07:30:23;;;;;;;23.53;18.60;;;9.80;99.90;;;;;;5077983;28;20484;-72
2021/10/09 07:32:49;;;;;;;26.97;17.80;;;9.80;99.90;;;;;;5069378;27;20291;-75
2021/10/09 07:35:15;;;;;;;26.50;19.00;;;9.90;99.90;;;;;;5017131;27;20446;-71
2021/10/09 07:37:41;;;;;;;22.27;18.50;;;9.90;99.90;;;;;;5019789;28;20281;-71
2021/10/09 07:40:07;;;;;;;25.40;19.30;;;10.00;99.90;;;;;;5016378;28;20457;-72
2021/10/09 07:42:33;;;;;;;24.13;19.07;;;10.00;99.90;;;;;;5026302;27;20468;-72
2021/10/09 07:44:58;;;;;;;25.60;19.77;;;10.00;99.90;;;;;;5026430;28;20445;-72
2021/10/09 07:47:24;;;;;;;23.80;19.23;;;10.10;99.90;;;;;;5027802;27;20218;-72
2021/10/09 07:49:49;;;;;;;27.67;19.13;;;10.10;99.90;;;;;;5027267;28;20210;-72
2021/10/09 07:52:15;;;;;;;30.50;20.63;;;10.20;99.90;;;;;;5017819;27;20223;-72
2021/10/09 07:54:41;;;;;;;25.33;19.33;;;10.20;99.90;;;;;;5008448;28;20314;-72
2021/10/09 07:57:07;;;;;;;24.37;18.00;;;10.30;99.90;;;;;;5006001;28;20470;-72
2021/10/09 07:59:34;;;;;;;23.90;19.87;;;10.40;99.90;;;;;;5007942;28;20200;-71
2021/10/09 08:02:00;;;;;;;26.20;20.47;;;10.40;99.90;;;;;;5025169;27;20499;-73
2021/10/09 08:04:28;;;;;;;23.87;19.33;;;10.50;99.90;;;;;;5027494;28;20469;-73
2021/10/09 08:06:53;;;;;;;25.43;19.60;;;10.50;99.90;;;;;;5027295;27;20233;-72
2021/10/09 08:09:19;;;;;;;28.33;20.73;;;10.60;99.90;;;;;;5027505;27;20548;-72
2021/10/09 08:11:45;;;;;;;25.13;20.73;;;10.70;99.90;;;;;;5029071;27;20227;-72
2021/10/09 08:14:11;;;;;;;27.50;20.20;;;10.80;99.90;;;;;;5028520;28;20456;-72
2021/10/09 08:16:36;;;;;;;22.60;18.10;;;10.90;99.90;;;;;;5025015;27;20239;-72
2021/10/09 08:19:03;;;;;;;25.50;18.87;;;10.90;99.90;;;;;;5030336;28;20323;-73
2021/10/09 08:21:30;;;;;;;24.83;18.00;;;11.00;99.90;;;;;;5030702;27;20194;-72
2021/10/09 08:24:03;;;;;;;25.93;19.40;;;11.10;99.90;;;;;;5020403;27;20465;-72
2021/10/09 08:26:53;;;;;;;22.97;18.50;;;11.20;99.90;;;;;;5026997;27;20446;-72
2021/10/09 08:40:14;;;;;;;20.53;16.60;;;11.70;99.90;;;;;;5028028;28;20434;-72
2021/10/09 08:42:39;;;;;;;21.47;18.13;;;11.80;99.90;;;;;;5019391;28;20425;-72
2021/10/09 08:45:07;;;;;;;21.13;16.37;;;11.90;99.90;;;;;;5029887;27;20471;-72
2021/10/09 08:47:35;;;;;;;22.73;16.60;;;12.00;99.90;;;;;;5030241;28;20175;-72
2021/10/09 08:50:02;;;;;;;22.63;17.60;;;12.10;99.90;;;;;;5030473;28;20516;-71
2021/10/09 08:52:29;;;;;;;23.10;17.73;;;12.20;99.90;;;;;;5023553;28;20454;-71
2021/10/09 08:54:56;;;;;;;17.90;15.77;;;12.30;99.90;;;;;;5011827;27;20515;-72
2021/10/09 08:57:24;;;;;;;23.23;17.60;;;12.40;99.90;;;;;;5010372;28;20422;-72
2021/10/09 09:00:09;;;;;;;22.55;18.00;;;12.50;99.90;;;;;;5021342;28;20410;-73
2021/10/09 09:02:40;;;;;;;20.40;16.60;;;12.70;99.90;;;;;;5016267;28;20415;-73
2021/10/09 09:35:24;;;;;;;16.97;15.07;;;14.00;99.90;;;;;;5031537;28;20386;-74
2021/10/09 09:40:39;;;;;;;19.50;15.80;;;14.30;99.90;;;;;;5012478;28;20402;-74
2021/10/09 09:43:06;;;;;;;19.30;15.87;;;14.40;99.90;;;;;;5029174;28;20417;-73
2021/10/09 09:45:32;;;;;;;18.93;14.00;;;14.50;99.90;;;;;;5030320;28;20489;-73
2021/10/09 09:47:59;;;;;;;20.13;14.70;;;14.60;99.90;;;;;;5011591;27;20426;-73
2021/10/09 09:50:26;;;;;;;16.80;14.97;;;14.70;99.90;;;;;;5011987;28;20190;-72
2021/10/09 09:52:53;;;;;;;17.40;14.17;;;14.80;99.90;;;;;;5011663;28;20476;-74
2021/10/09 09:55:20;;;;;;;16.33;13.63;;;14.90;99.90;;;;;;5011974;28;20491;-73
2021/10/09 09:57:47;;;;;;;17.97;13.10;;;15.00;99.90;;;;;;5024750;28;20986;-73
2021/10/09 10:00:15;;;;;;;14.97;13.47;;;15.10;99.90;;;;;;5031668;28;20894;-73
2021/10/09 10:02:48;;;;;;;15.90;12.20;;;15.20;99.90;;;;;;5031555;27;20422;-73
2021/10/09 10:05:14;;;;;;;15.53;12.00;;;15.30;99.90;;;;;;5031732;28;20943;-74
2021/10/09 10:07:41;;;;;;;17.97;11.93;;;15.40;99.90;;;;;;5029720;28;20456;-73
2021/10/09 10:10:07;;;;;;;13.37;10.67;;;15.50;99.90;;;;;;5031405;28;20437;-73
2021/10/09 10:12:33;;;;;;;17.17;11.90;;;15.50;99.90;;;;;;5037254;27;20595;-73
2021/10/09 10:15:00;;;;;;;16.57;12.70;;;15.60;99.90;;;;;;5133464;27;20500;-73
2021/10/09 10:17:38;;;;;;;14.33;11.30;;;15.60;99.90;;;;;;5127774;27;20167;-73
2021/10/09 10:20:11;;;;;;;15.00;10.87;;;15.70;99.90;;;;;;5010377;28;20930;-73
2021/10/09 10:22:38;;;;;;;11.93;10.53;;;15.80;99.90;;;;;;5011512;28;20949;-72
2021/10/09 10:25:16;;;;;;;13.93;10.53;;;15.90;99.90;;;;;;5010810;27;20450;-72
2021/10/09 10:27:42;;;;;;;12.10;9.73;;;16.10;99.90;;;;;;5011671;28;20875;-74
2021/10/09 10:30:34;;;;;;;10.90;9.77;;;16.20;99.90;;;;;;5011467;28;20430;-73
2021/10/09 10:33:00;;;;;;;14.40;9.20;;;16.30;99.90;;;;;;5010257;28;20172;-73
2021/10/09 10:35:46;;;;;;;10.67;9.57;;;16.40;99.90;;;;;;5009697;28;20496;-74
2021/10/09 10:38:22;;;;;;;15.30;11.27;;;16.50;99.90;;;;;;5010402;28;20273;-74
2021/10/09 10:41:00;;;;;;;10.60;9.40;;;16.60;99.90;;;;;;5028506;27;20429;-74
2021/10/09 10:46:02;;;;;;;14.33;10.63;;;16.80;99.90;;;;;;5031719;28;20422;-74
2021/10/09 10:48:43;;;;;;;11.40;10.13;;;16.70;99.10;;;;;;5031369;28;20418;-72
2021/10/09 10:51:15;;;;;;;11.07;9.53;;;16.70;99.30;;;;;;5031500;28;20540;-72
2021/10/09 10:54:05;;;;;;;13.33;10.43;;;16.80;99.80;;;;;;5029982;27;21041;-74
2021/10/09 10:56:32;;;;;;;10.23;8.67;;;16.80;99.60;;;;;;5029856;28;20873;-74
2021/10/09 10:59:26;;;;;;;9.80;8.80;;;16.80;98.40;;;;;;5030879;28;20498;-74
2021/10/09 11:02:10;;;;;;;10.50;9.33;;;16.90;98.70;;;;;;5030833;28;20155;-74
2021/10/09 11:04:39;;;;;;;12.50;8.73;;;17.00;98.10;;;;;;5030001;28;20427;-73
2021/10/09 11:07:05;;;;;;;11.10;8.90;;;17.00;98.00;;;;;;5030094;28;20441;-73
2021/10/09 11:09:32;;;;;;;11.73;9.00;;;17.10;97.80;;;;;;5030445;27;20441;-73
2021/10/09 11:11:58;;;;;;;10.20;8.70;;;17.10;97.30;;;;;;5030628;28;20464;-73
2021/10/09 11:14:26;;;;;;;9.20;8.30;;;17.10;97.20;;;;;;5028759;28;20512;-73
2021/10/09 11:17:04;;;;;;;11.47;8.60;;;17.10;97.10;;;;;;5029958;28;20441;-73
2021/10/09 11:19:41;;;;;;;11.63;9.17;;;17.10;96.80;;;;;;5030324;28;20458;-73
2021/10/09 11:22:07;;;;;;;11.93;9.10;;;17.00;96.60;;;;;;5030507;28;20452;-73
2021/10/09 11:24:48;;;;;;;10.67;8.57;;;17.00;97.10;;;;;;5029769;28;20461;-73
2021/10/09 11:27:15;;;;;;;9.50;8.20;;;17.10;97.20;;;;;;5030150;28;20193;-73
2021/10/09 11:29:42;;;;;;;13.30;8.53;;;17.20;96.90;;;;;;5029968;28;20436;-73
2021/10/09 11:32:10;;;;;;;9.57;8.00;;;17.30;96.90;;;;;;5030049;28;20856;-73
2021/10/09 11:34:52;;;;;;;10.00;7.47;;;17.30;96.90;;;;;;5029636;28;20410;-73
2021/10/09 11:37:18;;;;;;;10.23;7.30;;;17.30;96.80;;;;;;5010277;27;20449;-73
2021/10/09 11:39:49;;;;;;;8.80;7.90;;;17.20;96.10;;;;;;5009923;28;20452;-73
2021/10/09 11:42:18;;;;;;;9.90;7.30;;;17.20;95.30;;;;;;5010492;28;20395;-73
2021/10/09 11:44:59;;;;;;;9.40;7.13;;;17.30;95.50;;;;;;5012128;28;20479;-73
2021/10/09 11:53:30;;;;;;;9.40;7.80;;;17.20;94.80;;;;;;5013616;28;20886;-73
2021/10/09 11:56:11;;;;;;;9.77;7.70;;;17.20;94.70;;;;;;5014279;28;20438;-73
2021/10/09 11:58:47;;;;;;;9.00;7.40;;;17.30;94.30;;;;;;5030793;28;20464;-73
2021/10/09 12:01:33;;;;;;;8.90;7.30;;;17.20;94.10;;;;;;5033003;28;20416;-73
2021/10/09 12:04:17;;;;;;;10.47;7.40;;;17.20;93.70;;;;;;5033405;28;20453;-73
2021/10/09 12:06:55;;;;;;;9.83;7.40;;;17.20;93.90;;;;;;5033194;28;20811;-73
2021/10/09 12:09:42;;;;;;;7.70;6.90;;;17.10;94.00;;;;;;5033055;27;20434;-73
2021/10/09 12:12:15;;;;;;;7.90;7.20;;;17.10;94.40;;;;;;5033726;28;20452;-73
2021/10/09 12:14:40;;;;;;;8.53;7.13;;;17.10;94.60;;;;;;5036139;28;20493;-73
2021/10/09 12:17:06;;;;;;;10.33;7.63;;;17.10;94.70;;;;;;5047003;28;20866;-73
2021/10/09 12:19:32;;;;;;;9.77;7.60;;;17.10;95.00;;;;;;5025007;27;20203;-73
2021/10/09 12:22:04;;;;;;;8.20;7.40;;;17.10;95.50;;;;;;5018397;28;20415;-73
2021/10/09 12:24:32;;;;;;;7.97;7.17;;;17.10;94.60;;;;;;5013737;28;20191;-73
2021/10/09 12:27:05;;;;;;;10.63;7.97;;;17.10;94.40;;;;;;5012435;28;21307;-73
2021/10/09 12:29:34;;;;;;;12.03;7.80;;;17.10;94.10;;;;;;5013572;28;20445;-73
2021/10/09 12:32:14;;;;;;;10.43;8.00;;;17.10;94.80;;;;;;5013012;28;20454;-73
2021/10/09 12:34:40;;;;;;;8.93;7.60;;;17.10;95.10;;;;;;5012736;27;20479;-73
2021/10/09 12:37:33;;;;;;;8.63;7.83;;;17.10;95.00;;;;;;5012169;28;20826;-73
2021/10/09 12:40:41;;;;;;;8.90;8.00;;;17.10;95.10;;;;;;5023282;28;20475;-73
2021/10/09 12:43:10;;;;;;;8.80;7.67;;;17.10;95.20;;;;;;4960759;29;20432;-73
2021/10/09 12:45:36;;;;;;;9.03;7.97;;;17.00;95.30;;;;;;4952713;29;20821;-73
2021/10/09 12:48:03;;;;;;;13.43;7.87;;;17.10;95.50;;;;;;4952517;28;20520;-73
2021/10/09 12:50:33;;;;;;;8.17;7.23;;;17.10;95.50;;;;;;4948193;29;20959;-73
2021/10/09 12:52:58;;;;;;;8.93;7.57;;;17.00;95.40;;;;;;4933262;29;20469;-73
2021/10/09 12:55:27;;;;;;;9.87;7.67;;;17.10;95.40;;;;;;4916691;29;20504;-73
2021/10/09 12:57:56;;;;;;;11.03;7.67;;;17.10;95.30;;;;;;4932959;29;20425;-73
2021/10/09 13:00:24;;;;;;;8.33;6.70;;;17.10;95.20;;;;;;4933043;29;20438;-73
2021/10/09 13:02:53;;;;;;;8.73;7.27;;;17.10;95.20;;;;;;4949508;28;20456;-73
2021/10/09 13:05:24;;;;;;;10.10;7.47;;;17.10;95.30;;;;;;4951751;29;20873;-73
2021/10/09 13:07:51;;;;;;;12.50;8.10;;;17.20;95.30;;;;;;4952355;29;20456;-73
2021/10/09 13:10:18;;;;;;;12.23;7.40;;;17.20;95.00;;;;;;4952500;29;20421;-73
2021/10/09 13:12:44;;;;;;;11.23;8.13;;;17.30;95.00;;;;;;4942097;29;20979;-73
2021/10/09 13:15:10;;;;;;;9.17;7.37;;;17.40;94.80;;;;;;4932429;29;20485;-73
2021/10/09 13:17:36;;;;;;;8.80;7.33;;;17.40;94.70;;;;;;4942615;28;20202;-73
2021/10/09 13:20:03;;;;;;;9.03;7.50;;;17.50;94.80;;;;;;5012905;27;20190;-73
2021/10/09 13:22:29;;;;;;;9.13;5.73;;;17.60;94.80;;;;;;5016661;28;20436;-73
2021/10/09 13:24:54;;;;;;;8.47;7.37;;;17.70;94.60;;;;;;5031719;28;20492;-73
2021/10/09 13:27:20;;;;;;;10.30;7.40;;;17.70;94.20;;;;;;5031815;28;20179;-73
2021/10/09 13:29:45;;;;;;;11.73;7.50;;;17.80;94.20;;;;;;5032226;28;20499;-73
2021/10/09 13:32:11;;;;;;;10.43;6.83;;;17.90;94.40;;;;;;5031351;28;20657;-73
2021/10/09 13:34:36;;;;;;;7.90;7.10;;;18.00;94.50;;;;;;5031412;27;20191;-73
2021/10/09 13:37:02;;;;;;;10.83;7.30;;;18.10;94.20;;;;;;5031715;28;20206;-73
2021/10/09 13:39:27;;;;;;;8.90;7.70;;;18.20;94.00;;;;;;5031964;28;20167;-73
2021/10/09 13:41:53;;;;;;;8.97;7.67;;;18.30;93.90;;;;;;5032441;28;20611;-73
2021/10/09 13:44:18;;;;;;;11.07;9.80;;;18.40;93.90;;;;;;5028319;28;20189;-73
2021/10/09 13:46:44;;;;;;;12.07;10.80;;;18.40;96.00;;;;;;5031890;27;20272;-73
2021/10/09 13:49:11;;;;;;;13.07;11.50;;;18.40;97.50;;;;;;5031713;28;20190;-73
2021/10/09 13:51:36;;;;;;;12.93;11.63;;;18.40;98.00;;;;;;5030854;28;20440;-73
2021/10/09 13:54:02;;;;;;;15.97;12.60;;;18.40;98.30;;;;;;5031271;28;20206;-73
2021/10/09 13:56:27;;;;;;;15.43;11.67;;;18.50;98.40;;;;;;5010907;28;20623;-73
2021/10/09 13:58:53;;;;;;;12.03;10.77;;;18.50;98.50;;;;;;5011918;28;20180;-73
2021/10/09 14:01:19;;;;;;;14.33;11.13;;;18.50;98.50;;;;;;5011661;27;20195;-73
2021/10/09 14:03:46;;;;;;;12.07;10.07;;;18.60;98.10;;;;;;5011630;28;20903;-74
2021/10/09 14:06:11;;;;;;;14.50;9.90;;;18.60;98.30;;;;;;5024318;28;20201;-74
2021/10/09 14:08:37;;;;;;;11.93;10.60;;;18.80;98.20;;;;;;5030716;28;20505;-74
2021/10/09 14:11:03;;;;;;;11.57;10.37;;;18.90;97.80;;;;;;5031134;28;20289;-73
2021/10/09 14:13:29;;;;;;;15.50;10.70;;;18.90;98.00;;;;;;5031197;28;20224;-74
2021/10/09 14:15:55;;;;;;;11.90;10.23;;;18.90;98.10;;;;;;5026856;27;20451;-72
2021/10/09 14:18:22;;;;;;;13.90;11.97;;;19.10;97.60;;;;;;5012021;28;20399;-72
2021/10/09 14:20:49;;;;;;;14.07;10.87;;;19.00;97.90;;;;;;5020262;28;20403;-74
2021/10/09 14:23:15;;;;;;;14.10;11.23;;;19.00;97.80;;;;;;5026591;28;20403;-75
2021/10/09 14:25:41;;;;;;;18.40;12.80;;;19.00;98.00;;;;;;5024343;28;20435;-74
2021/10/09 14:28:09;;;;;;;12.93;11.63;;;19.00;98.10;;;;;;5030419;27;20494;-72
2021/10/09 14:30:34;;;;;;;14.10;11.00;;;19.10;97.90;;;;;;5031256;28;20402;-74
2021/10/09 14:33:00;;;;;;;12.67;11.00;;;19.10;97.70;;;;;;5031070;28;20456;-74
2021/10/09 14:35:25;;;;;;;12.50;11.20;;;19.20;97.80;;;;;;5030871;28;20195;-73
2021/10/09 14:37:51;;;;;;;13.47;10.80;;;19.30;97.60;;;;;;5029873;27;20170;-72